sensor_id;sensor_type;location;lat;lon;timestamp;P1;durP1;ratioP1;P2;durP2;ratioP2
8040;SDS011;4063;48.140;10.250;2023-03-03T00:00:25;71.37;;;34.93;;
8040;SDS011;4063;48.140;10.250;2023-03-03T00:02:51;68.37;;;35.23;;
8040;SDS011;4063;48.140;10.250;2023-03-03T00:05:17;58.93;;;33.73;;
8040;SDS011;4063;48.140;10.250;2023-03-03T00:07:43;66.63;;;34.33;;
8040;SDS011;4063;48.140;10.250;2023-03-03T00:10:10;67.17;;;35.67;;
8040;SDS011;4063;48.140;10.250;2023-03-03T00:12:36;76.37;;;35.20;;
8040;SDS011;4063;48.140;10.250;2023-03-03T00:15:15;69.20;;;35.67;;
8040;SDS011;4063;48.140;10.250;2023-03-03T00:17:41;73.20;;;36.43;;
8040;SDS011;4063;48.140;10.250;2023-03-03T00:22:52;74.60;;;36.57;;
8040;SDS011;4063;48.140;10.250;2023-03-03T00:25:26;70.83;;;36.40;;
8040;SDS011;4063;48.140;10.250;2023-03-03T00:27:53;65.87;;;34.57;;
8040;SDS011;4063;48.140;10.250;2023-03-03T00:30:22;69.07;;;36.40;;
8040;SDS011;4063;48.140;10.250;2023-03-03T00:32:49;76.13;;;37.57;;
8040;SDS011;4063;48.140;10.250;2023-03-03T00:35:38;69.60;;;34.63;;
8040;SDS011;4063;48.140;10.250;2023-03-03T00:38:11;66.50;;;34.53;;
8040;SDS011;4063;48.140;10.250;2023-03-03T00:40:39;63.93;;;33.03;;
8040;SDS011;4063;48.140;10.250;2023-03-03T00:43:22;71.70;;;35.87;;
8040;SDS011;4063;48.140;10.250;2023-03-03T00:45:54;73.20;;;36.40;;
8040;SDS011;4063;48.140;10.250;2023-03-03T00:48:39;68.63;;;35.30;;
8040;SDS011;4063;48.140;10.250;2023-03-03T00:53:48;65.97;;;36.27;;
8040;SDS011;4063;48.140;10.250;2023-03-03T00:56:14;68.33;;;34.50;;
8040;SDS011;4063;48.140;10.250;2023-03-03T00:58:40;67.87;;;37.40;;
8040;SDS011;4063;48.140;10.250;2023-03-03T01:01:08;67.73;;;35.93;;
8040;SDS011;4063;48.140;10.250;2023-03-03T01:03:34;65.90;;;35.20;;
8040;SDS011;4063;48.140;10.250;2023-03-03T01:06:00;65.57;;;37.70;;
8040;SDS011;4063;48.140;10.250;2023-03-03T01:08:26;69.73;;;36.80;;
8040;SDS011;4063;48.140;10.250;2023-03-03T01:10:56;81.47;;;37.67;;
8040;SDS011;4063;48.140;10.250;2023-03-03T01:13:27;68.40;;;36.23;;
8040;SDS011;4063;48.140;10.250;2023-03-03T01:15:53;66.63;;;36.50;;
8040;SDS011;4063;48.140;10.250;2023-03-03T01:18:19;65.40;;;37.00;;
8040;SDS011;4063;48.140;10.250;2023-03-03T01:20:45;61.30;;;35.03;;
8040;SDS011;4063;48.140;10.250;2023-03-03T01:23:11;65.03;;;35.47;;
8040;SDS011;4063;48.140;10.250;2023-03-03T01:25:37;63.00;;;34.83;;
8040;SDS011;4063;48.140;10.250;2023-03-03T01:28:03;62.17;;;36.33;;
8040;SDS011;4063;48.140;10.250;2023-03-03T01:30:29;62.50;;;36.20;;
8040;SDS011;4063;48.140;10.250;2023-03-03T01:32:55;70.80;;;36.77;;
8040;SDS011;4063;48.140;10.250;2023-03-03T01:35:21;72.10;;;38.27;;
8040;SDS011;4063;48.140;10.250;2023-03-03T01:37:48;64.30;;;35.93;;
8040;SDS011;4063;48.140;10.250;2023-03-03T01:40:15;64.37;;;35.53;;
8040;SDS011;4063;48.140;10.250;2023-03-03T01:42:41;69.07;;;36.07;;
8040;SDS011;4063;48.140;10.250;2023-03-03T01:47:48;65.00;;;36.17;;
8040;SDS011;4063;48.140;10.250;2023-03-03T01:53:01;77.97;;;37.80;;
8040;SDS011;4063;48.140;10.250;2023-03-03T01:55:34;64.63;;;35.97;;
8040;SDS011;4063;48.140;10.250;2023-03-03T01:58:20;65.77;;;35.80;;
8040;SDS011;4063;48.140;10.250;2023-03-03T02:00:56;65.07;;;38.97;;
8040;SDS011;4063;48.140;10.250;2023-03-03T02:03:23;71.50;;;40.23;;
8040;SDS011;4063;48.140;10.250;2023-03-03T02:05:50;75.67;;;39.70;;
8040;SDS011;4063;48.140;10.250;2023-03-03T02:08:19;65.67;;;38.37;;
8040;SDS011;4063;48.140;10.250;2023-03-03T02:10:46;65.93;;;36.43;;
8040;SDS011;4063;48.140;10.250;2023-03-03T02:13:12;65.73;;;36.23;;
8040;SDS011;4063;48.140;10.250;2023-03-03T02:15:39;65.40;;;36.57;;
8040;SDS011;4063;48.140;10.250;2023-03-03T02:18:10;70.17;;;38.10;;
8040;SDS011;4063;48.140;10.250;2023-03-03T02:20:45;64.23;;;36.17;;
8040;SDS011;4063;48.140;10.250;2023-03-03T02:23:23;64.53;;;34.93;;
8040;SDS011;4063;48.140;10.250;2023-03-03T02:28:26;67.40;;;36.43;;
8040;SDS011;4063;48.140;10.250;2023-03-03T02:30:55;64.17;;;36.30;;
8040;SDS011;4063;48.140;10.250;2023-03-03T02:33:21;65.03;;;37.30;;
8040;SDS011;4063;48.140;10.250;2023-03-03T02:35:48;63.07;;;36.10;;
8040;SDS011;4063;48.140;10.250;2023-03-03T02:38:16;65.03;;;35.93;;
8040;SDS011;4063;48.140;10.250;2023-03-03T02:40:50;60.37;;;34.43;;
8040;SDS011;4063;48.140;10.250;2023-03-03T02:43:18;64.67;;;35.93;;
8040;SDS011;4063;48.140;10.250;2023-03-03T02:45:45;65.83;;;36.30;;
8040;SDS011;4063;48.140;10.250;2023-03-03T02:48:11;69.23;;;37.23;;
8040;SDS011;4063;48.140;10.250;2023-03-03T02:50:37;65.27;;;36.87;;
8040;SDS011;4063;48.140;10.250;2023-03-03T02:53:03;58.23;;;35.07;;
8040;SDS011;4063;48.140;10.250;2023-03-03T02:55:29;64.23;;;36.87;;
8040;SDS011;4063;48.140;10.250;2023-03-03T02:57:55;66.30;;;38.13;;
8040;SDS011;4063;48.140;10.250;2023-03-03T03:00:21;60.90;;;36.20;;
8040;SDS011;4063;48.140;10.250;2023-03-03T03:02:47;62.17;;;36.03;;
8040;SDS011;4063;48.140;10.250;2023-03-03T03:05:13;64.90;;;35.40;;
8040;SDS011;4063;48.140;10.250;2023-03-03T03:07:39;60.70;;;35.60;;
8040;SDS011;4063;48.140;10.250;2023-03-03T03:10:05;68.47;;;36.37;;
8040;SDS011;4063;48.140;10.250;2023-03-03T03:12:31;65.53;;;36.70;;
8040;SDS011;4063;48.140;10.250;2023-03-03T03:14:57;68.27;;;37.37;;
8040;SDS011;4063;48.140;10.250;2023-03-03T03:17:23;64.57;;;35.47;;
8040;SDS011;4063;48.140;10.250;2023-03-03T03:19:49;66.40;;;36.70;;
8040;SDS011;4063;48.140;10.250;2023-03-03T03:22:15;65.53;;;35.70;;
8040;SDS011;4063;48.140;10.250;2023-03-03T03:24:41;68.17;;;37.43;;
8040;SDS011;4063;48.140;10.250;2023-03-03T03:27:07;67.27;;;37.43;;
8040;SDS011;4063;48.140;10.250;2023-03-03T03:29:33;68.90;;;37.07;;
8040;SDS011;4063;48.140;10.250;2023-03-03T03:31:59;66.50;;;37.10;;
8040;SDS011;4063;48.140;10.250;2023-03-03T03:34:25;65.20;;;35.77;;
8040;SDS011;4063;48.140;10.250;2023-03-03T03:36:51;68.10;;;36.30;;
8040;SDS011;4063;48.140;10.250;2023-03-03T03:39:17;66.70;;;36.00;;
8040;SDS011;4063;48.140;10.250;2023-03-03T03:41:43;66.50;;;36.70;;
8040;SDS011;4063;48.140;10.250;2023-03-03T03:44:09;63.97;;;35.33;;
8040;SDS011;4063;48.140;10.250;2023-03-03T03:46:35;63.23;;;34.90;;
8040;SDS011;4063;48.140;10.250;2023-03-03T03:49:01;70.43;;;38.73;;
8040;SDS011;4063;48.140;10.250;2023-03-03T03:51:26;64.97;;;36.27;;
8040;SDS011;4063;48.140;10.250;2023-03-03T03:53:52;67.57;;;35.10;;
8040;SDS011;4063;48.140;10.250;2023-03-03T03:56:18;56.53;;;34.80;;
8040;SDS011;4063;48.140;10.250;2023-03-03T03:58:44;69.87;;;35.97;;
8040;SDS011;4063;48.140;10.250;2023-03-03T04:01:10;60.67;;;34.83;;
8040;SDS011;4063;48.140;10.250;2023-03-03T04:03:36;71.73;;;36.87;;
8040;SDS011;4063;48.140;10.250;2023-03-03T04:06:02;66.17;;;36.00;;
8040;SDS011;4063;48.140;10.250;2023-03-03T04:08:28;61.37;;;34.20;;
8040;SDS011;4063;48.140;10.250;2023-03-03T04:10:54;61.47;;;35.57;;
8040;SDS011;4063;48.140;10.250;2023-03-03T04:13:20;66.97;;;36.50;;
8040;SDS011;4063;48.140;10.250;2023-03-03T04:15:47;66.60;;;37.20;;
8040;SDS011;4063;48.140;10.250;2023-03-03T04:18:13;67.13;;;35.33;;
8040;SDS011;4063;48.140;10.250;2023-03-03T04:20:39;64.83;;;36.57;;
8040;SDS011;4063;48.140;10.250;2023-03-03T04:23:05;71.50;;;36.37;;
8040;SDS011;4063;48.140;10.250;2023-03-03T04:25:31;65.27;;;36.00;;
8040;SDS011;4063;48.140;10.250;2023-03-03T04:27:57;64.40;;;36.33;;
8040;SDS011;4063;48.140;10.250;2023-03-03T04:30:23;62.87;;;35.10;;
8040;SDS011;4063;48.140;10.250;2023-03-03T04:32:49;70.07;;;36.13;;
8040;SDS011;4063;48.140;10.250;2023-03-03T04:35:15;67.03;;;37.63;;
8040;SDS011;4063;48.140;10.250;2023-03-03T04:37:41;69.10;;;37.77;;
8040;SDS011;4063;48.140;10.250;2023-03-03T04:40:07;67.07;;;37.30;;
8040;SDS011;4063;48.140;10.250;2023-03-03T04:42:34;65.77;;;35.70;;
8040;SDS011;4063;48.140;10.250;2023-03-03T04:45:00;68.43;;;36.80;;
8040;SDS011;4063;48.140;10.250;2023-03-03T04:47:25;71.30;;;37.53;;
8040;SDS011;4063;48.140;10.250;2023-03-03T04:49:51;62.70;;;36.63;;
8040;SDS011;4063;48.140;10.250;2023-03-03T04:52:18;67.87;;;36.20;;
8040;SDS011;4063;48.140;10.250;2023-03-03T04:54:44;70.13;;;35.50;;
8040;SDS011;4063;48.140;10.250;2023-03-03T04:57:10;62.03;;;36.97;;
8040;SDS011;4063;48.140;10.250;2023-03-03T04:59:36;71.43;;;37.57;;
8040;SDS011;4063;48.140;10.250;2023-03-03T05:02:02;66.80;;;37.20;;
8040;SDS011;4063;48.140;10.250;2023-03-03T05:04:29;79.17;;;38.67;;
8040;SDS011;4063;48.140;10.250;2023-03-03T05:06:55;68.83;;;37.23;;
8040;SDS011;4063;48.140;10.250;2023-03-03T05:09:21;68.40;;;38.93;;
8040;SDS011;4063;48.140;10.250;2023-03-03T05:11:47;68.00;;;35.30;;
8040;SDS011;4063;48.140;10.250;2023-03-03T05:14:13;65.97;;;36.47;;
8040;SDS011;4063;48.140;10.250;2023-03-03T05:16:39;65.30;;;35.70;;
8040;SDS011;4063;48.140;10.250;2023-03-03T05:19:06;67.00;;;36.40;;
8040;SDS011;4063;48.140;10.250;2023-03-03T05:21:32;69.63;;;35.87;;
8040;SDS011;4063;48.140;10.250;2023-03-03T05:23:57;69.67;;;36.33;;
8040;SDS011;4063;48.140;10.250;2023-03-03T05:26:23;61.37;;;35.07;;
8040;SDS011;4063;48.140;10.250;2023-03-03T05:28:49;69.77;;;37.93;;
8040;SDS011;4063;48.140;10.250;2023-03-03T05:31:15;69.93;;;38.83;;
8040;SDS011;4063;48.140;10.250;2023-03-03T05:33:41;65.80;;;37.63;;
8040;SDS011;4063;48.140;10.250;2023-03-03T05:36:07;78.43;;;38.27;;
8040;SDS011;4063;48.140;10.250;2023-03-03T05:38:33;72.27;;;37.43;;
8040;SDS011;4063;48.140;10.250;2023-03-03T05:40:59;65.93;;;36.97;;
8040;SDS011;4063;48.140;10.250;2023-03-03T05:43:25;61.57;;;35.53;;
8040;SDS011;4063;48.140;10.250;2023-03-03T05:45:55;63.17;;;36.10;;
8040;SDS011;4063;48.140;10.250;2023-03-03T05:48:21;66.20;;;37.30;;
8040;SDS011;4063;48.140;10.250;2023-03-03T05:50:47;63.03;;;35.80;;
8040;SDS011;4063;48.140;10.250;2023-03-03T05:53:13;58.87;;;36.03;;
8040;SDS011;4063;48.140;10.250;2023-03-03T05:55:39;65.23;;;35.53;;
8040;SDS011;4063;48.140;10.250;2023-03-03T05:58:05;75.90;;;38.80;;
8040;SDS011;4063;48.140;10.250;2023-03-03T06:00:31;66.33;;;37.03;;
8040;SDS011;4063;48.140;10.250;2023-03-03T06:02:57;64.77;;;37.20;;
8040;SDS011;4063;48.140;10.250;2023-03-03T06:05:23;75.17;;;40.40;;
8040;SDS011;4063;48.140;10.250;2023-03-03T06:07:49;79.17;;;41.03;;
8040;SDS011;4063;48.140;10.250;2023-03-03T06:10:15;73.17;;;40.00;;
8040;SDS011;4063;48.140;10.250;2023-03-03T06:12:41;68.07;;;36.93;;
8040;SDS011;4063;48.140;10.250;2023-03-03T06:15:08;69.63;;;36.93;;
8040;SDS011;4063;48.140;10.250;2023-03-03T06:17:34;65.97;;;37.13;;
8040;SDS011;4063;48.140;10.250;2023-03-03T06:20:00;66.27;;;37.73;;
8040;SDS011;4063;48.140;10.250;2023-03-03T06:22:28;69.60;;;38.30;;
8040;SDS011;4063;48.140;10.250;2023-03-03T06:24:54;70.33;;;38.03;;
8040;SDS011;4063;48.140;10.250;2023-03-03T06:27:20;64.50;;;36.20;;
8040;SDS011;4063;48.140;10.250;2023-03-03T06:29:46;64.10;;;37.20;;
8040;SDS011;4063;48.140;10.250;2023-03-03T06:32:13;67.63;;;37.40;;
8040;SDS011;4063;48.140;10.250;2023-03-03T06:34:39;68.60;;;37.93;;
8040;SDS011;4063;48.140;10.250;2023-03-03T06:37:05;71.53;;;39.57;;
8040;SDS011;4063;48.140;10.250;2023-03-03T06:39:31;72.57;;;39.27;;
8040;SDS011;4063;48.140;10.250;2023-03-03T06:41:57;72.57;;;39.13;;
8040;SDS011;4063;48.140;10.250;2023-03-03T06:44:23;66.07;;;37.93;;
8040;SDS011;4063;48.140;10.250;2023-03-03T06:46:49;69.73;;;38.83;;
8040;SDS011;4063;48.140;10.250;2023-03-03T06:49:15;65.73;;;38.73;;
8040;SDS011;4063;48.140;10.250;2023-03-03T06:51:41;63.77;;;37.87;;
8040;SDS011;4063;48.140;10.250;2023-03-03T06:56:39;66.37;;;36.97;;
8040;SDS011;4063;48.140;10.250;2023-03-03T06:59:16;65.40;;;38.13;;
8040;SDS011;4063;48.140;10.250;2023-03-03T07:01:43;73.50;;;38.37;;
8040;SDS011;4063;48.140;10.250;2023-03-03T07:04:13;59.70;;;34.67;;
8040;SDS011;4063;48.140;10.250;2023-03-03T07:06:40;66.57;;;35.80;;
8040;SDS011;4063;48.140;10.250;2023-03-03T07:09:25;64.30;;;37.87;;
8040;SDS011;4063;48.140;10.250;2023-03-03T07:11:52;64.13;;;36.73;;
8040;SDS011;4063;48.140;10.250;2023-03-03T07:14:21;65.07;;;36.07;;
8040;SDS011;4063;48.140;10.250;2023-03-03T07:16:50;60.67;;;36.93;;
8040;SDS011;4063;48.140;10.250;2023-03-03T07:19:20;62.07;;;35.37;;
8040;SDS011;4063;48.140;10.250;2023-03-03T07:21:48;64.83;;;37.77;;
8040;SDS011;4063;48.140;10.250;2023-03-03T07:24:22;66.77;;;36.77;;
8040;SDS011;4063;48.140;10.250;2023-03-03T07:26:50;65.77;;;37.57;;
8040;SDS011;4063;48.140;10.250;2023-03-03T07:29:21;62.13;;;35.63;;
8040;SDS011;4063;48.140;10.250;2023-03-03T07:31:50;60.33;;;36.33;;
8040;SDS011;4063;48.140;10.250;2023-03-03T07:36:54;65.97;;;38.90;;
8040;SDS011;4063;48.140;10.250;2023-03-03T07:44:34;66.50;;;36.43;;
8040;SDS011;4063;48.140;10.250;2023-03-03T07:47:11;60.87;;;36.90;;
8040;SDS011;4063;48.140;10.250;2023-03-03T07:49:40;63.60;;;36.60;;
8040;SDS011;4063;48.140;10.250;2023-03-03T07:52:30;61.23;;;35.73;;
8040;SDS011;4063;48.140;10.250;2023-03-03T07:54:54;67.67;;;37.53;;
8040;SDS011;4063;48.140;10.250;2023-03-03T07:59:50;67.50;;;39.53;;
8040;SDS011;4063;48.140;10.250;2023-03-03T08:04:48;65.93;;;37.87;;
8040;SDS011;4063;48.140;10.250;2023-03-03T08:07:17;63.33;;;38.57;;
8040;SDS011;4063;48.140;10.250;2023-03-03T08:09:47;66.73;;;38.07;;
8040;SDS011;4063;48.140;10.250;2023-03-03T08:14:40;61.37;;;36.57;;
8040;SDS011;4063;48.140;10.250;2023-03-03T08:17:20;68.03;;;37.00;;
8040;SDS011;4063;48.140;10.250;2023-03-03T08:19:46;62.40;;;37.13;;
8040;SDS011;4063;48.140;10.250;2023-03-03T08:22:14;69.17;;;40.10;;
8040;SDS011;4063;48.140;10.250;2023-03-03T08:24:40;62.70;;;39.67;;
8040;SDS011;4063;48.140;10.250;2023-03-03T08:27:06;66.70;;;38.53;;
8040;SDS011;4063;48.140;10.250;2023-03-03T08:29:32;62.43;;;37.97;;
8040;SDS011;4063;48.140;10.250;2023-03-03T08:31:58;63.23;;;37.67;;
8040;SDS011;4063;48.140;10.250;2023-03-03T08:34:25;70.20;;;39.93;;
8040;SDS011;4063;48.140;10.250;2023-03-03T08:36:51;69.33;;;38.57;;
8040;SDS011;4063;48.140;10.250;2023-03-03T08:39:17;65.00;;;37.97;;
8040;SDS011;4063;48.140;10.250;2023-03-03T08:41:43;59.07;;;37.50;;
8040;SDS011;4063;48.140;10.250;2023-03-03T08:44:10;66.47;;;37.73;;
8040;SDS011;4063;48.140;10.250;2023-03-03T08:46:36;62.73;;;38.33;;
8040;SDS011;4063;48.140;10.250;2023-03-03T08:49:02;64.27;;;37.47;;
8040;SDS011;4063;48.140;10.250;2023-03-03T08:51:28;69.90;;;40.47;;
8040;SDS011;4063;48.140;10.250;2023-03-03T08:53:54;65.03;;;38.93;;
8040;SDS011;4063;48.140;10.250;2023-03-03T08:56:20;60.27;;;36.80;;
8040;SDS011;4063;48.140;10.250;2023-03-03T08:58:46;62.30;;;38.10;;
8040;SDS011;4063;48.140;10.250;2023-03-03T09:01:13;59.30;;;38.57;;
8040;SDS011;4063;48.140;10.250;2023-03-03T09:03:40;57.37;;;37.80;;
8040;SDS011;4063;48.140;10.250;2023-03-03T09:06:07;63.87;;;37.53;;
8040;SDS011;4063;48.140;10.250;2023-03-03T09:08:33;62.73;;;39.23;;
8040;SDS011;4063;48.140;10.250;2023-03-03T09:11:01;60.80;;;37.50;;
8040;SDS011;4063;48.140;10.250;2023-03-03T09:13:28;63.60;;;38.57;;
8040;SDS011;4063;48.140;10.250;2023-03-03T09:15:55;65.33;;;38.33;;
8040;SDS011;4063;48.140;10.250;2023-03-03T09:18:34;58.03;;;36.33;;
8040;SDS011;4063;48.140;10.250;2023-03-03T09:21:01;62.27;;;36.43;;
8040;SDS011;4063;48.140;10.250;2023-03-03T09:28:42;63.23;;;38.87;;
8040;SDS011;4063;48.140;10.250;2023-03-03T09:31:16;65.30;;;38.40;;
8040;SDS011;4063;48.140;10.250;2023-03-03T09:33:46;58.03;;;36.33;;
8040;SDS011;4063;48.140;10.250;2023-03-03T09:36:28;61.87;;;38.73;;
8040;SDS011;4063;48.140;10.250;2023-03-03T09:38:55;57.23;;;38.03;;
8040;SDS011;4063;48.140;10.250;2023-03-03T09:44:03;56.07;;;36.60;;
8040;SDS011;4063;48.140;10.250;2023-03-03T09:46:44;63.90;;;39.53;;
8040;SDS011;4063;48.140;10.250;2023-03-03T09:51:56;63.27;;;37.80;;
8040;SDS011;4063;48.140;10.250;2023-03-03T09:54:37;62.00;;;38.03;;
8040;SDS011;4063;48.140;10.250;2023-03-03T09:57:12;62.33;;;37.73;;
8040;SDS011;4063;48.140;10.250;2023-03-03T10:02:23;61.53;;;37.23;;
8040;SDS011;4063;48.140;10.250;2023-03-03T10:10:05;64.63;;;38.83;;
8040;SDS011;4063;48.140;10.250;2023-03-03T10:12:35;56.30;;;37.00;;
8040;SDS011;4063;48.140;10.250;2023-03-03T10:15:19;60.10;;;37.50;;
8040;SDS011;4063;48.140;10.250;2023-03-03T10:17:53;62.43;;;38.80;;
8040;SDS011;4063;48.140;10.250;2023-03-03T10:23:20;64.77;;;39.27;;
8040;SDS011;4063;48.140;10.250;2023-03-03T10:33:24;60.80;;;38.00;;
8040;SDS011;4063;48.140;10.250;2023-03-03T10:46:37;66.03;;;44.10;;
8040;SDS011;4063;48.140;10.250;2023-03-03T10:54:22;63.70;;;43.53;;
8040;SDS011;4063;48.140;10.250;2023-03-03T10:56:57;55.83;;;38.03;;
8040;SDS011;4063;48.140;10.250;2023-03-03T10:59:39;54.03;;;36.90;;
8040;SDS011;4063;48.140;10.250;2023-03-03T11:05:11;51.40;;;36.90;;
8040;SDS011;4063;48.140;10.250;2023-03-03T11:07:49;52.67;;;36.90;;
8040;SDS011;4063;48.140;10.250;2023-03-03T11:25:50;54.23;;;36.93;;
8040;SDS011;4063;48.140;10.250;2023-03-03T11:33:35;54.70;;;40.45;;
8040;SDS011;4063;48.140;10.250;2023-03-03T11:43:56;50.87;;;35.90;;
8040;SDS011;4063;48.140;10.250;2023-03-03T11:51:50;56.77;;;37.00;;
8040;SDS011;4063;48.140;10.250;2023-03-03T11:54:21;56.20;;;36.77;;
8040;SDS011;4063;48.140;10.250;2023-03-03T11:56:48;52.00;;;36.97;;
8040;SDS011;4063;48.140;10.250;2023-03-03T12:01:59;50.07;;;35.20;;
8040;SDS011;4063;48.140;10.250;2023-03-03T12:04:29;45.63;;;34.33;;
8040;SDS011;4063;48.140;10.250;2023-03-03T12:12:30;52.60;;;35.87;;
8040;SDS011;4063;48.140;10.250;2023-03-03T12:25:38;54.27;;;36.17;;
8040;SDS011;4063;48.140;10.250;2023-03-03T12:28:19;55.20;;;37.53;;
8040;SDS011;4063;48.140;10.250;2023-03-03T12:36:24;50.53;;;37.00;;
8040;SDS011;4063;48.140;10.250;2023-03-03T12:46:45;52.92;;;37.22;;
8040;SDS011;4063;48.140;10.250;2023-03-03T12:49:14;52.60;;;36.47;;
8040;SDS011;4063;48.140;10.250;2023-03-03T12:54:34;50.25;;;36.03;;
8040;SDS011;4063;48.140;10.250;2023-03-03T12:57:24;47.67;;;36.30;;
8040;SDS011;4063;48.140;10.250;2023-03-03T13:13:07;48.92;;;36.38;;
8040;SDS011;4063;48.140;10.250;2023-03-03T13:15:52;53.57;;;37.00;;
8040;SDS011;4063;48.140;10.250;2023-03-03T13:26:05;50.78;;;37.13;;
8040;SDS011;4063;48.140;10.250;2023-03-03T13:28:36;46.60;;;35.58;;
8040;SDS011;4063;48.140;10.250;2023-03-03T13:31:16;51.27;;;36.97;;
8040;SDS011;4063;48.140;10.250;2023-03-03T13:33:47;49.63;;;36.72;;
8040;SDS011;4063;48.140;10.250;2023-03-03T13:36:15;46.57;;;34.93;;
8040;SDS011;4063;48.140;10.250;2023-03-03T13:38:45;49.07;;;36.37;;
8040;SDS011;4063;48.140;10.250;2023-03-03T13:59:26;48.77;;;34.97;;
8040;SDS011;4063;48.140;10.250;2023-03-03T14:04:44;49.47;;;38.27;;
8040;SDS011;4063;48.140;10.250;2023-03-03T14:07:58;51.60;;;36.30;;
8040;SDS011;4063;48.140;10.250;2023-03-03T14:10:09;52.50;;;36.33;;
8040;SDS011;4063;48.140;10.250;2023-03-03T14:12:46;52.50;;;35.83;;
8040;SDS011;4063;48.140;10.250;2023-03-03T14:15:26;43.60;;;34.10;;
8040;SDS011;4063;48.140;10.250;2023-03-03T14:18:02;49.30;;;34.33;;
8040;SDS011;4063;48.140;10.250;2023-03-03T14:20:31;65.10;;;41.53;;
8040;SDS011;4063;48.140;10.250;2023-03-03T14:25:25;47.07;;;35.20;;
8040;SDS011;4063;48.140;10.250;2023-03-03T14:27:53;46.87;;;34.67;;
8040;SDS011;4063;48.140;10.250;2023-03-03T14:35:25;48.50;;;33.97;;
8040;SDS011;4063;48.140;10.250;2023-03-03T14:37:54;51.23;;;37.20;;
8040;SDS011;4063;48.140;10.250;2023-03-03T14:40:30;46.13;;;33.80;;
8040;SDS011;4063;48.140;10.250;2023-03-03T14:42:58;49.03;;;34.57;;
8040;SDS011;4063;48.140;10.250;2023-03-03T14:47:55;48.13;;;34.17;;
8040;SDS011;4063;48.140;10.250;2023-03-03T14:50:31;49.23;;;35.43;;
8040;SDS011;4063;48.140;10.250;2023-03-03T14:53:02;48.27;;;36.33;;
8040;SDS011;4063;48.140;10.250;2023-03-03T14:55:32;48.53;;;35.30;;
8040;SDS011;4063;48.140;10.250;2023-03-03T14:57:59;47.90;;;35.63;;
8040;SDS011;4063;48.140;10.250;2023-03-03T15:00:31;45.97;;;33.30;;
8040;SDS011;4063;48.140;10.250;2023-03-03T15:03:02;48.80;;;34.73;;
8040;SDS011;4063;48.140;10.250;2023-03-03T15:05:31;43.70;;;33.70;;
8040;SDS011;4063;48.140;10.250;2023-03-03T15:10:47;54.93;;;35.67;;
8040;SDS011;4063;48.140;10.250;2023-03-03T15:15:50;46.20;;;33.13;;
8040;SDS011;4063;48.140;10.250;2023-03-03T15:18:17;47.57;;;36.20;;
8040;SDS011;4063;48.140;10.250;2023-03-03T15:33:30;49.00;;;34.10;;
8040;SDS011;4063;48.140;10.250;2023-03-03T15:38:53;51.70;;;36.57;;
8040;SDS011;4063;48.140;10.250;2023-03-03T15:41:41;56.27;;;38.87;;
8040;SDS011;4063;48.140;10.250;2023-03-03T15:44:16;57.70;;;37.97;;
8040;SDS011;4063;48.140;10.250;2023-03-03T15:49:15;54.70;;;37.67;;
8040;SDS011;4063;48.140;10.250;2023-03-03T15:54:45;44.63;;;35.07;;
8040;SDS011;4063;48.140;10.250;2023-03-03T15:57:16;50.13;;;37.40;;
8040;SDS011;4063;48.140;10.250;2023-03-03T16:23:38;53.20;;;37.00;;
8040;SDS011;4063;48.140;10.250;2023-03-03T16:28:40;51.30;;;36.50;;
8040;SDS011;4063;48.140;10.250;2023-03-03T16:33:37;55.07;;;38.03;;
8040;SDS011;4063;48.140;10.250;2023-03-03T16:41:00;61.80;;;40.70;;
8040;SDS011;4063;48.140;10.250;2023-03-03T16:43:31;53.93;;;36.90;;
8040;SDS011;4063;48.140;10.250;2023-03-03T16:46:18;48.93;;;35.70;;
8040;SDS011;4063;48.140;10.250;2023-03-03T16:53:50;53.80;;;37.97;;
8040;SDS011;4063;48.140;10.250;2023-03-03T16:56:28;55.53;;;38.97;;
8040;SDS011;4063;48.140;10.250;2023-03-03T17:06:58;69.53;;;42.67;;
8040;SDS011;4063;48.140;10.250;2023-03-03T17:09:41;70.23;;;42.77;;
8040;SDS011;4063;48.140;10.250;2023-03-03T17:15:07;61.20;;;40.53;;
8040;SDS011;4063;48.140;10.250;2023-03-03T17:39:11;69.77;;;46.10;;
8040;SDS011;4063;48.140;10.250;2023-03-03T17:41:57;61.67;;;40.73;;
8040;SDS011;4063;48.140;10.250;2023-03-03T17:45:01;54.73;;;40.43;;
8040;SDS011;4063;48.140;10.250;2023-03-03T17:52:40;60.07;;;42.90;;
8040;SDS011;4063;48.140;10.250;2023-03-03T18:00:23;62.10;;;41.47;;
8040;SDS011;4063;48.140;10.250;2023-03-03T18:05:53;69.17;;;40.50;;
8040;SDS011;4063;48.140;10.250;2023-03-03T18:08:26;69.83;;;41.60;;
8040;SDS011;4063;48.140;10.250;2023-03-03T18:13:36;61.63;;;42.90;;
8040;SDS011;4063;48.140;10.250;2023-03-03T18:21:13;69.10;;;45.67;;
8040;SDS011;4063;48.140;10.250;2023-03-03T18:23:44;76.27;;;47.00;;
8040;SDS011;4063;48.140;10.250;2023-03-03T18:29:06;101.33;;;52.30;;
8040;SDS011;4063;48.140;10.250;2023-03-03T18:31:59;96.23;;;53.33;;
8040;SDS011;4063;48.140;10.250;2023-03-03T18:34:37;102.47;;;55.00;;
8040;SDS011;4063;48.140;10.250;2023-03-03T18:37:08;105.27;;;57.37;;
8040;SDS011;4063;48.140;10.250;2023-03-03T18:39:38;88.27;;;52.10;;
8040;SDS011;4063;48.140;10.250;2023-03-03T18:44:40;73.53;;;44.17;;
8040;SDS011;4063;48.140;10.250;2023-03-03T18:47:06;67.57;;;44.27;;
8040;SDS011;4063;48.140;10.250;2023-03-03T18:49:49;62.67;;;41.93;;
8040;SDS011;4063;48.140;10.250;2023-03-03T18:52:23;68.17;;;42.00;;
8040;SDS011;4063;48.140;10.250;2023-03-03T18:57:28;58.30;;;39.70;;
8040;SDS011;4063;48.140;10.250;2023-03-03T19:00:11;64.17;;;41.97;;
8040;SDS011;4063;48.140;10.250;2023-03-03T19:02:40;74.80;;;45.73;;
8040;SDS011;4063;48.140;10.250;2023-03-03T19:05:17;68.17;;;44.23;;
8040;SDS011;4063;48.140;10.250;2023-03-03T19:08:03;69.03;;;44.13;;
8040;SDS011;4063;48.140;10.250;2023-03-03T19:13:07;68.33;;;43.83;;
8040;SDS011;4063;48.140;10.250;2023-03-03T19:15:55;69.93;;;43.70;;
8040;SDS011;4063;48.140;10.250;2023-03-03T19:18:23;69.53;;;44.00;;
8040;SDS011;4063;48.140;10.250;2023-03-03T19:20:56;72.27;;;46.07;;
8040;SDS011;4063;48.140;10.250;2023-03-03T19:23:25;71.13;;;45.47;;
8040;SDS011;4063;48.140;10.250;2023-03-03T19:26:56;78.50;;;50.87;;
8040;SDS011;4063;48.140;10.250;2023-03-03T19:29:04;73.33;;;46.20;;
8040;SDS011;4063;48.140;10.250;2023-03-03T19:36:35;71.53;;;45.33;;
8040;SDS011;4063;48.140;10.250;2023-03-03T19:39:07;76.10;;;45.20;;
8040;SDS011;4063;48.140;10.250;2023-03-03T19:57:44;69.40;;;44.03;;
8040;SDS011;4063;48.140;10.250;2023-03-03T20:07:47;73.37;;;44.53;;
8040;SDS011;4063;48.140;10.250;2023-03-03T20:12:49;82.70;;;50.13;;
8040;SDS011;4063;48.140;10.250;2023-03-03T20:23:33;70.53;;;43.53;;
8040;SDS011;4063;48.140;10.250;2023-03-03T20:31:41;67.63;;;42.10;;
8040;SDS011;4063;48.140;10.250;2023-03-03T20:39:44;70.07;;;41.20;;
8040;SDS011;4063;48.140;10.250;2023-03-03T20:45:02;73.27;;;40.77;;
8040;SDS011;4063;48.140;10.250;2023-03-03T20:47:33;69.63;;;40.00;;
8040;SDS011;4063;48.140;10.250;2023-03-03T20:50:06;70.07;;;39.23;;
8040;SDS011;4063;48.140;10.250;2023-03-03T20:55:23;66.60;;;37.67;;
8040;SDS011;4063;48.140;10.250;2023-03-03T21:02:57;101.80;;;52.57;;
8040;SDS011;4063;48.140;10.250;2023-03-03T21:05:27;95.63;;;52.67;;
8040;SDS011;4063;48.140;10.250;2023-03-03T21:10:21;83.97;;;49.07;;
8040;SDS011;4063;48.140;10.250;2023-03-03T21:12:49;87.07;;;48.53;;
8040;SDS011;4063;48.140;10.250;2023-03-03T21:15:23;76.33;;;44.77;;
8040;SDS011;4063;48.140;10.250;2023-03-03T21:17:50;80.97;;;45.23;;
8040;SDS011;4063;48.140;10.250;2023-03-03T21:20:34;86.03;;;45.83;;